Triple S — V2QN7 — position and weather

sailwx.info

Track history (hours):
 
Tides and Currents Weather Stations Pressure Air Temp Water Temp Dewpoint Dewpoint Depression Visibility Wind Speed Wind Dir Waves Ship Positions

Triple S

Last reported at 2018-Feb-24 21:38 UTC. Time now 2018-Feb-25 08:11 UTC.
Position N 40°45' E 029°31'.

Length 90 m; draft 3.8 m.

Type: Cargo ship. MMSI: 305948000.

Date/timePositionNaut miles runAvg speedWind from/ knotsBaromVisibWave heightAir tempDewpointWater temp
2018-Feb-24 21:38N 40°45' E 029°31'310.5
2018-Feb-24 21:19N 40°44' E 029°27'311.1
2018-Feb-24 21:00N 40°43' E 029°23'4 8.8
2018-Feb-24 20:30N 40°43' E 029°17'511.0
2018-Feb-24 20:00N 40°42' E 029°10'611.3
2018-Feb-24 19:30N 40°40' E 029°03'15 5.5
2018-Feb-24 16:44N 40°25' E 029°02'2 6.4
2018-Feb-24 16:25N 40°25' E 029°05'  
2018-Feb-20 14:58N 37°47' E 016°04'4 9.2
2018-Feb-20 14:29N 37°49' E 015°59'5 9.1
2018-Feb-20 14:00N 37°50' E 015°53'4 9.2
2018-Feb-20 13:30N 37°51' E 015°48'5 9.1
2018-Feb-20 13:00N 37°53' E 015°43'5 9.3
2018-Feb-20 12:30N 37°56' E 015°38'5 9.1
2018-Feb-20 12:00N 37°59' E 015°34'5 8.5
2018-Feb-20 11:28N 38°04' E 015°33'510.1
2018-Feb-20 11:00N 38°08' E 015°35'611.3
2018-Feb-20 10:28N 38°14' E 015°36'510.7
2018-Feb-20 09:59N 38°18' E 015°40'611.8
2018-Feb-20 09:28N 38°24' E 015°38'611.5
2018-Feb-20 08:59N 38°29' E 015°36'511.5
2018-Feb-20 08:30N 38°35' E 015°35'1211.5
2018-Feb-20 07:26N 38°47' E 015°30'12411.2
2018-Feb-19 20:23N 40°33' E 014°08'411.3
2018-Feb-19 20:00N 40°37' E 014°11'611.2
2018-Feb-19 19:30N 40°43' E 014°14'510.8
2018-Feb-19 19:00N 40°48' E 014°16'  
2018-Feb-16 09:48N 40°50' E 014°17'2 4.6
2018-Feb-16 09:28N 40°48' E 014°17'4 8.0
2018-Feb-16 09:00N 40°45' E 014°16'4 8.3
2018-Feb-16 08:31N 40°41' E 014°13'5 9.0
2018-Feb-16 08:01N 40°39' E 014°07'5 9.3
2018-Feb-16 07:31N 40°37' E 014°02'5 9.9
2018-Feb-16 07:00N 40°35' E 013°56'260 9.2
2018-Feb-15 02:39N 38°40' E 008°53'1 9.0
2018-Feb-15 02:29N 38°40' E 008°51'6 8.9
2018-Feb-15 01:49N 38°39' E 008°44'3 9.3
2018-Feb-15 01:30N 38°39' E 008°40'  
Track history (hours):
 
Tides and Currents Weather Stations Pressure Air Temp Water Temp Dewpoint Dewpoint Depression Visibility Wind Speed Wind Dir Waves Ship Positions

Triple S

Last reported at 2018-Feb-24 21:38 UTC. Time now 2018-Feb-25 08:11 UTC.
Position N 40°45' E 029°31'.

Length 90 m; draft 3.8 m.

Type: Cargo ship. MMSI: 305948000.

Date/timePositionNaut miles runAvg speedWind from/ knotsBaromVisibWave heightAir tempDewpointWater temp
2018-Feb-24 21:38N 40°45' E 029°31'310.5
2018-Feb-24 21:19N 40°44' E 029°27'311.1
2018-Feb-24 21:00N 40°43' E 029°23'4 8.8
2018-Feb-24 20:30N 40°43' E 029°17'511.0
2018-Feb-24 20:00N 40°42' E 029°10'611.3
2018-Feb-24 19:30N 40°40' E 029°03'15 5.5
2018-Feb-24 16:44N 40°25' E 029°02'2 6.4
2018-Feb-24 16:25N 40°25' E 029°05'  
2018-Feb-20 14:58N 37°47' E 016°04'4 9.2
2018-Feb-20 14:29N 37°49' E 015°59'5 9.1
2018-Feb-20 14:00N 37°50' E 015°53'4 9.2
2018-Feb-20 13:30N 37°51' E 015°48'5 9.1
2018-Feb-20 13:00N 37°53' E 015°43'5 9.3
2018-Feb-20 12:30N 37°56' E 015°38'5 9.1
2018-Feb-20 12:00N 37°59' E 015°34'5 8.5
2018-Feb-20 11:28N 38°04' E 015°33'510.1
2018-Feb-20 11:00N 38°08' E 015°35'611.3
2018-Feb-20 10:28N 38°14' E 015°36'510.7
2018-Feb-20 09:59N 38°18' E 015°40'611.8
2018-Feb-20 09:28N 38°24' E 015°38'611.5
2018-Feb-20 08:59N 38°29' E 015°36'511.5
2018-Feb-20 08:30N 38°35' E 015°35'1211.5
2018-Feb-20 07:26N 38°47' E 015°30'12411.2
2018-Feb-19 20:23N 40°33' E 014°08'411.3
2018-Feb-19 20:00N 40°37' E 014°11'611.2
2018-Feb-19 19:30N 40°43' E 014°14'510.8
2018-Feb-19 19:00N 40°48' E 014°16'  
2018-Feb-16 09:48N 40°50' E 014°17'2 4.6
2018-Feb-16 09:28N 40°48' E 014°17'4 8.0
2018-Feb-16 09:00N 40°45' E 014°16'4 8.3
2018-Feb-16 08:31N 40°41' E 014°13'5 9.0
2018-Feb-16 08:01N 40°39' E 014°07'5 9.3
2018-Feb-16 07:31N 40°37' E 014°02'5 9.9
2018-Feb-16 07:00N 40°35' E 013°56'260 9.2
2018-Feb-15 02:39N 38°40' E 008°53'1 9.0
2018-Feb-15 02:29N 38°40' E 008°51'6 8.9
2018-Feb-15 01:49N 38°39' E 008°44'3 9.3
2018-Feb-15 01:30N 38°39' E 008°40'  

Dump ship's entire track history